KFBR

Details ICAO KFBR
Name Fort Bridger
Region United States
Timezone America/Denver (UTC-6.0)
Plans Departing 0
Arriving 3
Stats Elevation 7,034 ft / 2,144 m (AMSL)
Location 41.393196° -110.406485°
Runways 3
Magnetic Variation 10.883° E
Sunrise 2018-05-23 11:57:18 UTC / 2018-05-23 05:57:18 Local
Sunset 2018-05-24 02:42:22 UTC / 2018-05-23 20:42:22 Local
Advertisement - Login to hide

Runways

ID Width Length Bearing (true) Bearing (mag) Surface Threshold Offset Overrun Length
04 79 ft / 24 m 6,397 ft / 1,950 m 54.29° 43.41° Asphalt 0 ft / 0 m 0 ft / 0 m
06 79 ft / 24 m 3,728 ft / 1,136 m 78.70° 67.82° Dirt 0 ft / 0 m 0 ft / 0 m
16 59 ft / 18 m 4,559 ft / 1,389 m 180.00° 169.12° Grass 0 ft / 0 m 0 ft / 0 m
22 79 ft / 24 m 6,397 ft / 1,950 m 234.31° 223.43° Asphalt 0 ft / 0 m 0 ft / 0 m
24 79 ft / 24 m 3,728 ft / 1,136 m 258.70° 247.82° Dirt 0 ft / 0 m 0 ft / 0 m
34 59 ft / 18 m 4,559 ft / 1,389 m 0.00° 349.12° Grass 0 ft / 0 m 0 ft / 0 m

Map

Weather


0- 5 10 15 20 25 30 35+ Temperature / ° C

Clouds and Precipitation
Forecast for 2018-05-24 00:00 UTC. Updated 5 hours ago

Ground ~20,000 ft ~40,000 ft Winds

METAR

KFBR 240435Z AUTO 23011KT 10SM CLR 11/04 A3018 RMK AO2 T01110040

TAF

Not found

Frequencies

Recorded 118.80 MHz AWOS 2
Unicom 122.80 MHz CTAF/UNICOM
Warning: Do not use this data for real-world aviation or navigation. No guarantee of current accuracy is given.